Time;durP1;ratioP1;P1;durP2;ratioP2;P2;SDS_P1;SDS_P2;PMS_P1;PMS_P2;Temp;Humidity;BMP_temperature;BMP_pressure;BME280_temperature;BME280_humidity;BME280_pressure;Samples;Min_cycle;Max_cycle;Signal;HPM_P1;HPM_P2
2022/10/26 00:00:01;;;;;;;0.40;0.40;;;;;;;11.87;100.00;98477.69;5010690;28;20033;-78
2022/10/26 00:02:26;;;;;;;0.50;0.50;;;;;;;11.87;100.00;98483.09;5007872;28;20037;-78
2022/10/26 00:04:52;;;;;;;0.40;0.40;;;;;;;11.90;100.00;98479.09;4988212;28;20099;-77
2022/10/26 00:07:18;;;;;;;2.83;1.05;;;;;;;12.02;100.00;98477.19;5011785;28;20087;-81
2022/10/26 00:09:43;;;;;;;0.50;0.50;;;;;;;12.06;100.00;98475.63;5023340;28;20033;-77
2022/10/26 00:12:09;;;;;;;0.63;0.40;;;;;;;12.10;100.00;98471.41;5026875;28;20250;-78
2022/10/26 00:14:34;;;;;;;2.83;0.70;;;;;;;12.08;100.00;98454.66;5024030;28;20060;-77
2022/10/26 00:17:00;;;;;;;3.13;1.23;;;;;;;12.09;100.00;98450.91;5024974;28;20474;-78
2022/10/26 00:19:26;;;;;;;8.13;1.23;;;;;;;12.11;100.00;98448.78;5003481;28;20048;-80
2022/10/26 00:21:52;;;;;;;0.70;0.68;;;;;;;12.14;100.00;98436.72;5005689;28;20518;-81
2022/10/26 00:24:17;;;;;;;1.90;0.80;;;;;;;12.17;100.00;98431.66;5031384;28;20045;-79
2022/10/26 00:26:43;;;;;;;2.85;1.02;;;;;;;12.35;100.00;98443.25;5023066;28;20025;-80
2022/10/26 00:29:10;;;;;;;2.30;1.08;;;;;;;12.43;100.00;98422.09;5013818;28;20029;-79
2022/10/26 00:31:36;;;;;;;1.05;0.75;;;;;;;12.55;100.00;98422.03;5027863;28;20040;-78
2022/10/26 00:34:01;;;;;;;3.70;0.88;;;;;;;12.57;100.00;98419.09;5028281;28;20021;-77
2022/10/26 00:36:27;;;;;;;2.60;1.25;;;;;;;12.58;100.00;98429.63;5027934;28;20120;-80
2022/10/26 00:38:54;;;;;;;7.97;1.35;;;;;;;12.61;100.00;98415.66;5012414;28;20033;-78
2022/10/26 00:41:26;;;;;;;2.55;1.20;;;;;;;12.66;100.00;98414.94;5027829;28;20095;-79
2022/10/26 00:43:52;;;;;;;8.95;2.15;;;;;;;12.69;100.00;98423.31;5005271;28;20060;-78
2022/10/26 00:46:31;;;;;;;4.82;1.17;;;;;;;12.64;100.00;98407.06;5012806;28;20083;-79
2022/10/26 00:49:17;;;;;;;6.68;1.10;;;;;;;12.73;100.00;98413.69;5025251;28;20037;-79
2022/10/26 00:51:47;;;;;;;6.40;1.40;;;;;;;12.67;100.00;98398.47;5022840;28;20488;-78
2022/10/26 00:54:17;;;;;;;6.43;1.58;;;;;;;12.66;100.00;98415.72;5009095;28;20040;-80
2022/10/26 00:56:44;;;;;;;1.88;0.80;;;;;;;12.50;100.00;98430.84;5002819;28;20060;-77
2022/10/26 00:59:11;;;;;;;0.60;0.60;;;;;;;12.37;100.00;98438.44;5010962;28;20454;-77
2022/10/26 01:01:38;;;;;;;1.08;0.82;;;;;;;12.25;100.00;98430.44;5026433;28;20076;-77
2022/10/26 01:04:04;;;;;;;0.45;0.45;;;;;;;12.20;100.00;98439.25;5046097;28;20061;-76
2022/10/26 01:06:31;;;;;;;0.30;0.30;;;;;;;12.03;100.00;98425.75;5028206;28;20072;-78
2022/10/26 01:08:56;;;;;;;0.40;0.40;;;;;;;12.06;100.00;98440.59;5039998;28;20087;-77
2022/10/26 01:11:22;;;;;;;0.43;0.43;;;;;;;12.02;100.00;98413.34;5025192;28;20034;-79
2022/10/26 01:13:50;;;;;;;0.32;0.32;;;;;;;12.00;100.00;98406.56;5032076;28;20480;-78
2022/10/26 01:16:40;;;;;;;0.30;0.30;;;;;;;11.98;100.00;98414.06;5007784;28;20438;-76
2022/10/26 01:19:35;;;;;;;0.70;0.70;;;;;;;11.96;100.00;98397.34;5028179;28;20094;-77
2022/10/26 01:22:09;;;;;;;0.30;0.30;;;;;;;11.98;100.00;98381.75;5012194;28;20045;-77
2022/10/26 01:25:05;;;;;;;1.13;1.10;;;;;;;12.00;100.00;98366.19;5011492;28;20044;-77
2022/10/26 01:27:49;;;;;;;0.40;0.40;;;;;;;11.99;100.00;98340.31;5027814;28;20426;-78
2022/10/26 01:30:16;;;;;;;1.50;0.55;;;;;;;11.97;100.00;98293.97;5044353;28;20032;-78
2022/10/26 01:32:54;;;;;;;0.30;0.30;;;;;;;12.00;100.00;98299.66;5024769;28;21507;-76
2022/10/26 01:35:21;;;;;;;0.40;0.40;;;;;;;12.01;100.00;98297.78;5011717;28;20037;-77
2022/10/26 01:38:17;;;;;;;0.50;0.50;;;;;;;11.96;100.00;98311.16;5014870;28;20033;-78
2022/10/26 01:40:52;;;;;;;0.40;0.40;;;;;;;11.88;100.00;98340.13;5007741;28;20436;-77
2022/10/26 01:43:17;;;;;;;0.30;0.30;;;;;;;11.79;100.00;98346.94;5017292;28;20033;-78
2022/10/26 01:45:46;;;;;;;0.50;0.50;;;;;;;11.79;100.00;98368.47;4996415;28;20087;-77
2022/10/26 01:48:13;;;;;;;2.72;0.75;;;;;;;11.79;100.00;98360.41;5027715;28;20037;-77
2022/10/26 01:50:41;;;;;;;0.30;0.30;;;;;;;11.64;100.00;98354.72;5013680;28;20036;-80
2022/10/26 01:53:11;;;;;;;0.50;0.50;;;;;;;11.65;100.00;98384.13;5011026;28;20033;-79
2022/10/26 01:55:49;;;;;;;0.30;0.30;;;;;;;11.63;100.00;98398.88;5013161;28;20103;-80
2022/10/26 01:58:33;;;;;;;2.22;0.63;;;;;;;11.57;100.00;98376.44;5002537;28;20037;-77
2022/10/26 02:01:14;;;;;;;0.35;0.35;;;;;;;11.59;100.00;98368.94;5013026;28;20128;-78
2022/10/26 02:04:14;;;;;;;0.40;0.40;;;;;;;11.58;100.00;98391.50;5040651;28;20411;-78
2022/10/26 02:07:02;;;;;;;0.30;0.30;;;;;;;11.59;100.00;98382.41;5029324;28;20068;-79
2022/10/26 02:09:55;;;;;;;0.35;0.35;;;;;;;11.58;100.00;98358.41;5022236;28;20037;-79
2022/10/26 02:12:28;;;;;;;0.30;0.30;;;;;;;11.74;100.00;98379.16;5016531;28;20053;-82
2022/10/26 02:15:03;;;;;;;0.30;0.30;;;;;;;11.80;100.00;98388.97;5023076;28;20482;-78
2022/10/26 02:17:53;;;;;;;0.30;0.30;;;;;;;11.80;100.00;98359.34;5006822;28;20052;-77
2022/10/26 02:20:26;;;;;;;0.30;0.30;;;;;;;11.73;100.00;98368.63;5008399;28;20084;-77
2022/10/26 02:22:54;;;;;;;0.30;0.30;;;;;;;11.63;100.00;98367.38;5010283;28;20544;-76
2022/10/26 02:25:23;;;;;;;0.30;0.30;;;;;;;11.49;100.00;98386.78;5005092;28;20064;-79
2022/10/26 02:27:53;;;;;;;0.30;0.30;;;;;;;11.31;100.00;98361.66;5010527;28;20037;-79
2022/10/26 02:30:19;;;;;;;0.35;0.35;;;;;;;11.20;100.00;98338.31;5008271;28;20033;-80
2022/10/26 02:32:47;;;;;;;0.30;0.30;;;;;;;11.25;100.00;98359.94;5026224;28;20386;-76
2022/10/26 02:35:14;;;;;;;0.40;0.40;;;;;;;11.15;100.00;98340.91;5025419;28;20057;-82
2022/10/26 02:37:41;;;;;;;0.47;0.47;;;;;;;11.13;100.00;98337.63;5020248;28;20056;-82
2022/10/26 02:40:12;;;;;;;0.43;0.43;;;;;;;11.10;100.00;98327.34;5008260;28;20041;-79
2022/10/26 02:42:40;;;;;;;0.40;0.40;;;;;;;11.04;100.00;98328.31;5025403;28;20479;-79
2022/10/26 02:45:09;;;;;;;1.00;1.00;;;;;;;11.02;100.00;98314.28;4993979;28;20036;-79
2022/10/26 02:47:35;;;;;;;0.30;0.30;;;;;;;11.02;100.00;98319.66;4995973;28;20095;-79
2022/10/26 02:50:00;;;;;;;0.30;0.30;;;;;;;10.97;100.00;98302.38;5021468;28;20033;-77
2022/10/26 02:52:39;;;;;;;0.30;0.30;;;;;;;11.19;100.00;98332.13;5011284;28;20502;-79
2022/10/26 02:55:16;;;;;;;0.30;0.30;;;;;;;11.27;100.00;98347.03;4996092;28;20025;-79
2022/10/26 02:57:45;;;;;;;0.30;0.30;;;;;;;11.31;100.00;98350.09;5010443;28;20044;-78
2022/10/26 03:00:13;;;;;;;0.30;0.30;;;;;;;11.32;100.00;98357.09;5010046;28;20041;-79
2022/10/26 03:02:41;;;;;;;0.32;0.32;;;;;;;11.33;100.00;98358.75;5023396;28;20151;-78
2022/10/26 03:05:22;;;;;;;0.30;0.30;;;;;;;11.21;100.00;98348.00;5022723;28;20021;-77
2022/10/26 03:07:47;;;;;;;0.30;0.30;;;;;;;11.33;100.00;98367.63;5011209;28;20064;-78
2022/10/26 03:10:13;;;;;;;0.30;0.30;;;;;;;11.23;100.00;98346.72;5027342;28;20068;-78
2022/10/26 03:12:39;;;;;;;0.30;0.30;;;;;;;11.29;100.00;98339.56;5009251;28;20029;-78
2022/10/26 03:15:05;;;;;;;0.30;0.30;;;;;;;11.40;100.00;98338.69;5022573;28;20029;-79
2022/10/26 03:17:30;;;;;;;0.30;0.30;;;;;;;11.43;100.00;98332.84;5025484;28;20025;-79
2022/10/26 03:19:56;;;;;;;0.30;0.30;;;;;;;11.35;100.00;98332.41;5022451;28;20052;-77
2022/10/26 03:22:22;;;;;;;0.30;0.30;;;;;;;11.14;100.00;98325.81;5007048;28;20041;-78
2022/10/26 03:24:47;;;;;;;0.30;0.30;;;;;;;11.02;100.00;98316.97;5027095;28;20090;-77
2022/10/26 03:27:13;;;;;;;0.40;0.40;;;;;;;10.88;100.00;98317.25;5022246;28;20468;-78
2022/10/26 03:29:39;;;;;;;0.32;0.32;;;;;;;10.85;100.00;98293.53;5024909;28;20151;-79
2022/10/26 03:32:05;;;;;;;0.30;0.30;;;;;;;10.92;100.00;98315.69;5005578;28;20468;-77
2022/10/26 03:34:31;;;;;;;0.30;0.30;;;;;;;10.94;100.00;98300.16;5008915;28;20476;-80
2022/10/26 03:36:57;;;;;;;0.40;0.40;;;;;;;11.21;100.00;98304.97;5011130;28;20116;-77
2022/10/26 03:39:22;;;;;;;0.30;0.30;;;;;;;11.38;100.00;98305.03;5026177;28;20441;-80
2022/10/26 03:41:48;;;;;;;0.30;0.30;;;;;;;11.37;100.00;98312.28;4993501;28;20373;-78
2022/10/26 03:44:14;;;;;;;0.30;0.30;;;;;;;11.38;100.00;98305.03;5020522;28;20029;-79
2022/10/26 03:46:39;;;;;;;4.03;0.52;;;;;;;11.30;100.00;98308.09;5042091;28;20422;-80
2022/10/26 03:49:05;;;;;;;0.40;0.40;;;;;;;11.31;100.00;98329.38;5004893;28;20052;-78
2022/10/26 03:51:31;;;;;;;1.55;0.50;;;;;;;11.29;100.00;98315.34;5000053;28;20468;-77
2022/10/26 03:53:56;;;;;;;2.63;0.75;;;;;;;11.27;100.00;98322.84;4996052;28;20472;-77
2022/10/26 03:56:22;;;;;;;0.40;0.40;;;;;;;11.23;100.00;98321.69;5023049;28;20560;-78
2022/10/26 03:58:47;;;;;;;0.38;0.38;;;;;;;11.30;100.00;98310.78;5026238;28;20035;-77
2022/10/26 04:01:13;;;;;;;0.50;0.50;;;;;;;11.30;100.00;98300.84;5010434;28;20026;-76
2022/10/26 04:03:39;;;;;;;0.30;0.30;;;;;;;11.20;100.00;98316.81;5009005;28;20035;-79
2022/10/26 04:06:05;;;;;;;0.30;0.30;;;;;;;11.25;100.00;98338.41;5027534;28;20038;-80
2022/10/26 04:08:30;;;;;;;0.30;0.30;;;;;;;11.17;100.00;98326.16;5009047;28;20403;-78
2022/10/26 04:10:56;;;;;;;0.30;0.30;;;;;;;11.06;100.00;98312.75;4998430;28;20044;-77
2022/10/26 04:13:22;;;;;;;0.30;0.30;;;;;;;10.86;100.00;98308.59;5006555;28;20472;-78
2022/10/26 04:15:48;;;;;;;0.30;0.30;;;;;;;10.76;100.00;98308.38;5008716;28;20372;-78
2022/10/26 04:18:13;;;;;;;0.30;0.30;;;;;;;10.87;100.00;98322.84;5014795;28;21685;-77
2022/10/26 04:20:41;;;;;;;0.30;0.30;;;;;;;10.85;100.00;98315.03;4993039;28;20116;-77
2022/10/26 04:23:10;;;;;;;0.30;0.30;;;;;;;10.98;100.00;98327.38;5007914;28;20372;-78
2022/10/26 04:25:36;;;;;;;0.40;0.40;;;;;;;10.98;100.00;98317.47;5026396;28;20022;-78
2022/10/26 04:28:03;;;;;;;2.05;0.82;;;;;;;11.04;100.00;98331.00;5025255;28;20496;-77
2022/10/26 04:30:29;;;;;;;0.38;0.38;;;;;;;11.05;100.00;98333.44;5002385;28;20072;-79
2022/10/26 04:32:55;;;;;;;0.40;0.40;;;;;;;10.81;100.00;98291.56;5015410;28;20025;-79
2022/10/26 04:35:21;;;;;;;0.30;0.30;;;;;;;11.01;100.00;98326.91;5010070;28;20614;-78
2022/10/26 04:37:46;;;;;;;0.30;0.30;;;;;;;11.06;100.00;98329.72;5024646;28;20037;-79
2022/10/26 04:40:12;;;;;;;0.40;0.40;;;;;;;11.02;100.00;98319.66;5026896;28;20033;-79
2022/10/26 04:42:45;;;;;;;0.30;0.30;;;;;;;10.95;100.00;98325.16;5026495;28;20033;-78
2022/10/26 04:45:13;;;;;;;1.50;0.60;;;;;;;10.81;100.00;98329.19;5027176;28;20029;-78
2022/10/26 04:47:38;;;;;;;0.30;0.30;;;;;;;10.75;100.00;98330.94;5021614;28;20102;-78
2022/10/26 04:50:05;;;;;;;0.60;0.60;;;;;;;10.59;100.00;98311.00;5009165;28;20125;-78
2022/10/26 04:52:30;;;;;;;0.40;0.40;;;;;;;10.65;100.00;98344.97;5008251;28;20136;-79
2022/10/26 04:54:56;;;;;;;0.30;0.30;;;;;;;10.50;100.00;98331.19;5027313;28;20116;-79
2022/10/26 04:57:22;;;;;;;0.30;0.30;;;;;;;10.48;100.00;98352.94;5023113;28;20033;-78
2022/10/26 04:59:47;;;;;;;0.40;0.40;;;;;;;10.46;100.00;98352.34;5026341;28;20037;-79
2022/10/26 05:02:13;;;;;;;1.95;0.50;;;;;;;10.43;100.00;98355.50;5006203;28;20140;-77
2022/10/26 05:04:38;;;;;;;1.10;0.40;;;;;;;10.29;100.00;98341.50;4994182;28;20038;-78
2022/10/26 05:07:04;;;;;;;0.40;0.40;;;;;;;10.21;100.00;98341.78;5007026;28;20042;-80
2022/10/26 05:09:30;;;;;;;0.40;0.40;;;;;;;10.15;100.00;98353.47;5029783;28;20033;-77
2022/10/26 05:11:55;;;;;;;0.40;0.40;;;;;;;10.09;100.00;98338.28;5014263;28;20029;-77
2022/10/26 05:14:21;;;;;;;0.30;0.30;;;;;;;10.12;100.00;98356.63;5029297;28;20037;-78
2022/10/26 05:16:46;;;;;;;0.20;0.20;;;;;;;10.22;100.00;98364.13;5013968;28;20356;-78
2022/10/26 05:19:12;;;;;;;0.40;0.40;;;;;;;10.11;100.00;98349.63;5012327;28;20094;-78
2022/10/26 05:21:37;;;;;;;0.30;0.30;;;;;;;10.21;100.00;98367.81;5028730;28;20033;-77
2022/10/26 05:24:03;;;;;;;1.40;0.40;;;;;;;10.22;100.00;98370.28;5008529;28;20369;-77
2022/10/26 05:26:29;;;;;;;0.52;0.43;;;;;;;10.11;100.00;98374.59;5029443;28;20041;-77
2022/10/26 05:28:55;;;;;;;0.75;0.40;;;;;;;10.18;100.00;98398.66;5027146;28;20026;-77
2022/10/26 05:31:20;;;;;;;0.40;0.40;;;;;;;10.17;100.00;98397.03;5027366;28;20513;-77
2022/10/26 05:33:50;;;;;;;2.22;0.50;;;;;;;10.18;100.00;98413.94;5030117;28;20029;-77
2022/10/26 05:36:17;;;;;;;0.30;0.30;;;;;;;10.20;100.00;98406.50;5012504;28;20124;-80
2022/10/26 05:38:58;;;;;;;0.40;0.40;;;;;;;10.04;100.00;98395.34;4988830;28;20403;-77
2022/10/26 05:41:24;;;;;;;0.47;0.40;;;;;;;10.24;100.00;98427.28;5012910;28;20460;-78
2022/10/26 05:43:49;;;;;;;0.40;0.40;;;;;;;10.22;100.00;98421.31;5024003;28;21164;-77
2022/10/26 05:46:15;;;;;;;0.40;0.40;;;;;;;10.36;100.00;98424.63;5030276;28;20030;-77
2022/10/26 05:48:40;;;;;;;0.45;0.45;;;;;;;10.40;100.00;98444.63;5026165;28;20537;-77
2022/10/26 05:51:06;;;;;;;0.50;0.50;;;;;;;10.36;100.00;98439.94;4994409;28;20061;-80
2022/10/26 05:53:32;;;;;;;0.30;0.30;;;;;;;10.23;100.00;98440.94;4991609;28;21853;-77
2022/10/26 05:55:58;;;;;;;0.40;0.40;;;;;;;10.18;100.00;98447.00;5029603;28;20032;-78
2022/10/26 05:58:24;;;;;;;0.40;0.35;;;;;;;10.11;100.00;98460.53;4992977;28;20145;-77
2022/10/26 06:01:06;;;;;;;0.30;0.30;;;;;;;10.07;100.00;98455.84;5010813;28;20120;-77
2022/10/26 06:03:38;;;;;;;1.65;0.50;;;;;;;10.07;100.00;98478.13;5007208;28;20033;-78
2022/10/26 06:06:04;;;;;;;0.50;0.50;;;;;;;9.94;100.00;98472.94;5026005;28;20460;-77
2022/10/26 06:08:30;;;;;;;0.38;0.30;;;;;;;9.96;100.00;98462.81;4996838;28;20043;-78
2022/10/26 06:10:58;;;;;;;0.40;0.40;;;;;;;9.89;100.00;98456.69;5029528;28;20033;-77
2022/10/26 06:13:24;;;;;;;0.30;0.30;;;;;;;10.02;100.00;98479.88;5010455;28;20022;-77
2022/10/26 06:16:09;;;;;;;0.52;0.40;;;;;;;10.12;100.00;98504.31;5024897;28;20056;-78
2022/10/26 06:18:46;;;;;;;0.40;0.40;;;;;;;10.15;100.00;98500.34;5027620;28;20445;-78
2022/10/26 06:21:51;;;;;;;0.40;0.40;;;;;;;10.05;100.00;98493.63;5001214;28;20437;-78
2022/10/26 06:24:46;;;;;;;1.27;0.55;;;;;;;10.07;100.00;98510.34;5011870;28;20487;-80
2022/10/26 06:27:24;;;;;;;1.77;0.50;;;;;;;10.26;100.00;98505.75;5010048;28;20037;-78
2022/10/26 06:29:59;;;;;;;0.30;0.30;;;;;;;10.50;100.00;98530.84;5006671;28;20045;-78
2022/10/26 06:32:25;;;;;;;0.40;0.40;;;;;;;10.40;100.00;98517.16;5008313;28;20163;-79
2022/10/26 06:34:59;;;;;;;1.45;0.70;;;;;;;10.48;100.00;98551.75;5016423;28;20120;-81
2022/10/26 06:37:25;;;;;;;0.30;0.30;;;;;;;10.29;100.00;98547.47;5009819;28;20170;-80
2022/10/26 06:39:51;;;;;;;0.55;0.55;;;;;;;10.25;100.00;98554.34;4999426;28;20037;-79
2022/10/26 06:42:19;;;;;;;1.38;0.50;;;;;;;10.15;100.00;98562.09;5036301;28;20064;-79
2022/10/26 06:44:45;;;;;;;2.88;0.90;;;;;;;9.94;100.00;98547.28;5010274;28;20387;-77
2022/10/26 06:47:14;;;;;;;0.30;0.30;;;;;;;10.10;100.00;98574.34;5006285;28;20026;-78
2022/10/26 06:49:56;;;;;;;0.40;0.40;;;;;;;9.89;100.00;98556.03;5018755;28;20152;-77
2022/10/26 06:52:34;;;;;;;0.40;0.40;;;;;;;9.93;100.00;98584.06;5018609;28;20033;-78
2022/10/26 06:55:01;;;;;;;0.30;0.30;;;;;;;9.94;100.00;98588.38;4990835;28;20390;-78
2022/10/26 06:57:34;;;;;;;0.40;0.40;;;;;;;9.98;100.00;98586.91;4991190;28;20391;-78
2022/10/26 07:00:19;;;;;;;0.40;0.40;;;;;;;9.99;100.00;98596.56;5008124;28;20037;-77
2022/10/26 07:02:45;;;;;;;0.60;0.60;;;;;;;9.94;100.00;98607.16;4987937;28;20045;-78
2022/10/26 07:05:14;;;;;;;0.30;0.30;;;;;;;9.87;100.00;98609.09;5001947;28;20033;-80
2022/10/26 07:07:42;;;;;;;0.30;0.30;;;;;;;9.88;100.00;98610.75;5024972;28;20499;-78
2022/10/26 07:10:09;;;;;;;0.40;0.40;;;;;;;9.99;100.00;98625.31;5026105;28;20048;-79
2022/10/26 07:12:35;;;;;;;0.50;0.50;;;;;;;10.00;100.00;98622.41;5026097;28;20040;-77
2022/10/26 07:15:02;;;;;;;0.40;0.40;;;;;;;9.99;100.00;98626.13;5007343;28;20430;-77
2022/10/26 07:17:29;;;;;;;0.30;0.30;;;;;;;9.88;100.00;98635.72;5022508;28;20053;-78
2022/10/26 07:19:55;;;;;;;0.30;0.30;;;;;;;9.91;100.00;98639.84;5022588;28;20036;-78
2022/10/26 07:22:21;;;;;;;0.30;0.30;;;;;;;9.86;100.00;98642.38;5007610;28;20496;-77
2022/10/26 07:24:49;;;;;;;0.30;0.30;;;;;;;9.63;100.00;98629.59;5026323;28;20025;-79
2022/10/26 07:27:18;;;;;;;0.30;0.30;;;;;;;9.81;100.00;98652.94;5021928;28;20065;-77
2022/10/26 07:29:44;;;;;;;0.32;0.32;;;;;;;9.82;100.00;98671.53;5026335;28;20491;-79
2022/10/26 07:32:10;;;;;;;0.30;0.30;;;;;;;9.69;100.00;98645.63;4991200;28;20040;-79
2022/10/26 07:34:38;;;;;;;0.40;0.40;;;;;;;9.79;100.00;98681.88;5007960;28;20048;-77
2022/10/26 07:37:04;;;;;;;0.40;0.40;;;;;;;9.75;100.00;98680.69;4995089;28;20325;-77
2022/10/26 07:39:31;;;;;;;0.40;0.40;;;;;;;9.71;100.00;98690.22;5025139;28;20033;-78
2022/10/26 07:41:57;;;;;;;0.35;0.35;;;;;;;9.83;100.00;98693.81;5017842;28;20049;-78
2022/10/26 07:44:23;;;;;;;0.30;0.30;;;;;;;9.81;100.00;98698.56;5021731;28;20026;-77
2022/10/26 07:46:48;;;;;;;0.40;0.40;;;;;;;9.91;100.00;98712.31;5010970;28;20056;-77
2022/10/26 07:49:14;;;;;;;0.30;0.30;;;;;;;9.96;100.00;98728.59;5027573;28;20040;-79
2022/10/26 07:51:40;;;;;;;0.38;0.38;;;;;;;9.98;100.00;98721.13;4993079;28;20030;-78
2022/10/26 07:54:05;;;;;;;0.30;0.30;;;;;;;10.08;100.00;98734.88;5025608;28;20026;-76
2022/10/26 07:56:31;;;;;;;0.32;0.32;;;;;;;10.19;100.00;98738.69;5002895;28;20029;-78
2022/10/26 07:58:57;;;;;;;0.52;0.52;;;;;;;10.27;100.00;98742.94;4992008;28;20045;-79
2022/10/26 08:01:22;;;;;;;0.40;0.40;;;;;;;10.29;100.00;98740.88;5021426;28;20034;-79
2022/10/26 08:03:52;;;;;;;0.32;0.32;;;;;;;10.39;100.00;98754.59;5023175;28;20183;-86
2022/10/26 08:06:17;;;;;;;0.30;0.30;;;;;;;10.45;100.00;98772.53;5020247;28;20033;-86
2022/10/26 08:08:45;;;;;;;0.50;0.50;;;;;;;10.48;100.00;98782.84;4994998;28;20498;-83
2022/10/26 08:11:11;;;;;;;0.40;0.40;;;;;;;10.49;100.00;98781.78;5028330;28;20136;-86
2022/10/26 08:13:37;;;;;;;0.40;0.40;;;;;;;10.62;100.00;98798.81;5027638;28;21602;-84
2022/10/26 08:16:04;;;;;;;0.40;0.40;;;;;;;10.68;100.00;98808.66;5027243;28;20498;-83
2022/10/26 08:18:29;;;;;;;0.40;0.40;;;;;;;10.78;100.00;98823.22;5010846;28;20509;-86
2022/10/26 08:21:01;;;;;;;0.50;0.50;;;;;;;10.87;100.00;98804.91;5010796;28;20132;-83
2022/10/26 08:23:26;;;;;;;0.40;0.40;;;;;;;11.18;100.00;98816.53;5039125;28;20032;-83
2022/10/26 08:25:57;;;;;;;0.40;0.40;;;;;;;11.71;100.00;98820.34;5008921;28;20025;-84
2022/10/26 08:28:22;;;;;;;0.40;0.40;;;;;;;12.51;100.00;98819.81;5027466;28;20048;-85
2022/10/26 08:30:48;;;;;;;0.50;0.50;;;;;;;13.35;100.00;98836.44;5008838;28;20033;-83
2022/10/26 08:33:18;;;;;;;0.63;0.63;;;;;;;14.63;100.00;98841.28;4987371;28;20092;-82
2022/10/26 08:35:43;;;;;;;0.63;0.63;;;;;;;15.36;100.00;98852.75;5020025;28;20116;-83
2022/10/26 08:38:09;;;;;;;2.88;0.90;;;;;;;16.09;98.91;98843.44;5011633;28;20113;-84
2022/10/26 08:40:37;;;;;;;0.85;0.80;;;;;;;16.47;96.23;98864.91;4992273;28;20033;-85
2022/10/26 08:43:22;;;;;;;1.80;0.75;;;;;;;16.35;97.14;98880.53;5009984;28;20444;-84
2022/10/26 08:45:52;;;;;;;0.77;0.50;;;;;;;15.51;100.00;98883.78;5031160;28;20029;-83
2022/10/26 08:48:25;;;;;;;1.25;0.90;;;;;;;14.29;100.00;98892.66;5016134;28;20510;-84
2022/10/26 08:50:52;;;;;;;4.93;1.92;;;;;;;15.14;100.00;98896.09;5031445;28;20029;-85
2022/10/26 08:53:27;;;;;;;4.70;1.50;;;;;;;15.78;100.00;98900.91;4996805;28;20594;-85
2022/10/26 08:55:59;;;;;;;3.75;1.50;;;;;;;16.41;97.37;98900.41;5032512;28;20498;-84
2022/10/26 08:58:32;;;;;;;3.00;1.13;;;;;;;16.12;96.58;98913.44;5015508;28;20092;-84
2022/10/26 09:00:58;;;;;;;2.53;1.30;;;;;;;14.53;100.00;98914.16;5007572;28;20411;-83
2022/10/26 09:03:23;;;;;;;4.40;1.38;;;;;;;14.47;100.00;98929.47;5010607;28;20033;-83
2022/10/26 09:06:27;;;;;;;7.05;1.60;;;;;;;15.15;100.00;98941.03;5011572;28;20116;-82
2022/10/26 09:09:14;;;;;;;6.30;1.85;;;;;;;14.39;100.00;98953.34;5020635;28;20120;-83
2022/10/26 09:12:10;;;;;;;1.58;0.80;;;;;;;13.51;100.00;98959.03;5012657;28;20056;-83
2022/10/26 09:15:01;;;;;;;6.50;1.30;;;;;;;12.84;100.00;98964.84;5031397;28;20030;-84
2022/10/26 09:17:32;;;;;;;4.68;1.15;;;;;;;13.93;100.00;98971.47;5033893;28;20033;-84
2022/10/26 09:20:14;;;;;;;10.50;2.33;;;;;;;15.85;100.00;98973.91;5036365;28;20053;-84
2022/10/26 09:22:56;;;;;;;4.53;1.20;;;;;;;16.98;91.52;98978.44;5013837;28;20065;-83
2022/10/26 09:25:25;;;;;;;4.70;1.25;;;;;;;17.98;86.86;98983.84;5035251;28;20029;-84
2022/10/26 09:27:56;;;;;;;8.70;1.83;;;;;;;17.71;86.41;98977.75;5001859;28;20034;-83
2022/10/26 09:30:22;;;;;;;2.65;1.77;;;;;;;17.52;87.53;98983.66;5017572;28;20383;-85
2022/10/26 09:32:55;;;;;;;13.38;1.92;;;;;;;15.79;94.29;99002.81;5014211;28;20040;-83
2022/10/26 09:35:22;;;;;;;6.10;1.97;;;;;;;16.32;92.90;99007.72;4998648;28;20030;-83
2022/10/26 09:38:11;;;;;;;2.83;1.00;;;;;;;16.64;90.61;99021.31;5014118;28;20765;-83
2022/10/26 09:41:05;;;;;;;5.57;1.65;;;;;;;15.74;93.46;99027.13;5031923;28;21231;-83
2022/10/26 09:43:58;;;;;;;5.75;1.80;;;;;;;15.75;94.79;99050.47;5030474;28;20044;-84
2022/10/26 09:46:30;;;;;;;;;;;;;;;15.30;96.91;99045.22;5046860;28;20057;-83
2022/10/26 09:49:05;;;;;;;6.88;1.67;;;;;;;15.30;97.63;99054.16;5029302;28;19948;-84
2022/10/26 09:51:37;;;;;;;7.18;2.63;;;;;;;16.79;91.73;99064.09;5011652;28;20492;-85
2022/10/26 09:54:16;;;;;;;6.25;2.45;;;;;;;17.51;89.55;99074.38;5012542;28;20478;-84
2022/10/26 09:56:48;;;;;;;11.98;2.45;;;;;;;16.69;92.04;99081.88;5014703;28;20037;-84
2022/10/26 09:59:15;;;;;;;7.30;1.70;;;;;;;15.66;97.54;99089.84;5015175;28;20030;-83
2022/10/26 10:01:44;;;;;;;11.70;2.03;;;;;;;16.20;97.90;99095.47;4992131;28;20283;-83
2022/10/26 10:04:12;;;;;;;2.40;1.40;;;;;;;15.41;100.00;99103.03;5047211;28;20033;-84
2022/10/26 10:06:39;;;;;;;8.93;1.63;;;;;;;15.15;100.00;99110.75;5029274;28;20044;-84
2022/10/26 10:09:10;;;;;;;4.15;1.60;;;;;;;15.76;100.00;99117.13;5014879;28;20115;-84
2022/10/26 10:11:44;;;;;;;6.93;2.00;;;;;;;15.31;100.00;99093.69;5028353;28;20107;-84
2022/10/26 10:14:16;;;;;;;5.40;2.08;;;;;;;16.09;100.00;99131.66;5011014;28;20040;-84
2022/10/26 10:17:15;;;;;;;4.05;1.20;;;;;;;18.35;87.38;99131.66;5030119;28;20029;-85
2022/10/26 10:19:41;;;;;;;7.32;2.05;;;;;;;19.91;80.36;99135.91;5020998;28;20494;-85
2022/10/26 10:22:07;;;;;;;8.65;1.80;;;;;;;19.92;79.92;99132.06;5030243;28;20029;-84
2022/10/26 10:24:35;;;;;;;9.25;3.25;;;;;;;19.23;81.47;99136.22;5031255;28;20030;-85
2022/10/26 10:27:16;;;;;;;5.68;2.25;;;;;;;19.91;77.41;99135.91;5031218;28;20167;-84
2022/10/26 10:29:45;;;;;;;3.38;1.73;;;;;;;21.64;69.33;99131.31;5008423;28;20041;-84
2022/10/26 10:32:19;;;;;;;6.93;2.58;;;;;;;20.00;75.70;99136.94;5040002;28;20041;-83
2022/10/26 10:34:48;;;;;;;12.60;3.10;;;;;;;20.62;73.56;99146.56;5015701;28;20074;-84
2022/10/26 10:37:40;;;;;;;6.40;2.10;;;;;;;20.31;71.17;99145.03;5003972;28;20034;-83
2022/10/26 10:40:20;;;;;;;6.18;2.20;;;;;;;20.31;72.14;99153.22;5025901;28;20472;-84
2022/10/26 10:42:47;;;;;;;7.32;1.40;;;;;;;19.93;70.02;99150.09;5034088;28;20034;-86
2022/10/26 10:45:27;;;;;;;9.60;1.80;;;;;;;18.45;77.48;99153.47;4993337;28;20033;-84
2022/10/26 10:48:00;;;;;;;5.70;1.70;;;;;;;17.42;78.23;99160.19;5012621;28;20033;-84
2022/10/26 10:50:28;;;;;;;8.85;1.52;;;;;;;16.95;78.78;99168.19;5013224;28;20033;-84
2022/10/26 10:53:15;;;;;;;5.20;1.13;;;;;;;16.56;77.63;99173.72;4998176;28;20471;-84
2022/10/26 10:55:49;;;;;;;2.78;1.10;;;;;;;16.45;74.82;99153.78;5028443;28;20026;-83
2022/10/26 10:58:24;;;;;;;4.15;1.30;;;;;;;17.40;69.82;99178.66;5015261;28;20026;-85
2022/10/26 11:00:50;;;;;;;7.57;2.42;;;;;;;17.35;69.93;99193.00;5017662;28;20038;-83
2022/10/26 11:03:40;;;;;;;3.63;1.40;;;;;;;18.40;64.12;99188.84;5012861;28;20037;-84
2022/10/26 11:06:13;;;;;;;14.35;3.20;;;;;;;19.89;57.38;99193.44;5026918;28;20503;-84
2022/10/26 11:08:41;;;;;;;8.18;2.65;;;;;;;19.85;56.64;99200.56;5011558;28;20037;-83
2022/10/26 11:11:10;;;;;;;6.47;1.63;;;;;;;18.64;59.99;99214.50;5013334;28;20041;-84
2022/10/26 11:13:52;;;;;;;6.40;1.95;;;;;;;16.82;67.38;99215.56;5027822;28;20032;-85
2022/10/26 11:16:25;;;;;;;4.07;1.35;;;;;;;15.92;71.10;99229.28;5028671;28;20231;-84
2022/10/26 11:19:02;;;;;;;6.32;2.30;;;;;;;15.49;73.53;99236.16;5012874;28;20041;-84
2022/10/26 11:21:36;;;;;;;5.68;2.78;;;;;;;15.32;74.21;99240.72;4997013;28;20037;-84
2022/10/26 11:24:10;;;;;;;9.50;2.13;;;;;;;15.31;74.81;99249.94;5008762;28;20550;-84
2022/10/26 11:26:51;;;;;;;8.23;2.80;;;;;;;15.30;75.64;99256.44;5028348;28;20426;-84
2022/10/26 11:29:26;;;;;;;8.68;2.72;;;;;;;15.20;76.90;99258.94;5004845;28;20380;-84
2022/10/26 11:32:03;;;;;;;9.25;2.35;;;;;;;15.10;76.61;99263.09;5024921;28;20115;-83
2022/10/26 11:34:39;;;;;;;7.10;2.20;;;;;;;15.03;75.92;99275.13;5012892;28;20053;-84
2022/10/26 11:37:29;;;;;;;6.05;2.38;;;;;;;14.95;76.80;99274.47;4993450;28;20048;-84
2022/10/26 11:40:15;;;;;;;9.10;2.17;;;;;;;14.88;78.23;99284.59;5027799;28;20068;-84
2022/10/26 11:42:49;;;;;;;6.97;1.65;;;;;;;14.86;78.88;99283.19;4988698;28;20026;-84